Time;durP1;ratioP1;P1;durP2;ratioP2;P2;SDS_P1;SDS_P2;PMS_P1;PMS_P2;Temp;Humidity;BMP_temperature;BMP_pressure;BME280_temperature;BME280_humidity;BME280_pressure;Samples;Min_cycle;Max_cycle;Signal;HPM_P1;HPM_P2
2023/05/12 00:00:14;;;;;;;;;;;;;;;19.13;32.30;101663.97;5091261;28;19912;-65
2023/05/12 00:02:39;;;;;;;;;;;;;;;19.11;32.93;101670.69;5092646;28;19912;-66
2023/05/12 00:05:06;;;;;;;;;;;;;;;19.09;33.29;101678.25;5092578;28;20391;-66
2023/05/12 00:07:31;;;;;;;;;;;;;;;19.05;32.97;101677.84;5092312;28;19916;-66
2023/05/12 00:09:56;;;;;;;;;;;;;;;19.07;32.79;101673.00;5092652;28;19998;-67
2023/05/12 00:12:22;;;;;;;;;;;;;;;19.06;33.22;101681.44;5092159;28;19923;-66
2023/05/12 00:14:47;;;;;;;;;;;;;;;19.08;33.17;101682.88;5092408;28;19924;-66
2023/05/12 00:17:12;;;;;;;;;;;;;;;19.10;33.25;101680.75;5092521;28;20419;-66
2023/05/12 00:19:40;;;;;;;;;;;;;;;19.05;33.36;101685.19;5095687;28;19916;-66
2023/05/12 00:22:05;;;;;;;;;;;;;;;19.07;33.04;101688.53;5096319;28;20051;-66
2023/05/12 00:24:31;;;;;;;;;;;;;;;19.04;33.19;101684.38;5095738;28;20011;-65
2023/05/12 00:26:56;;;;;;;;;;;;;;;19.05;33.16;101686.03;5097214;28;19918;-65
2023/05/12 00:29:21;;;;;;;;;;;;;;;19.04;32.92;101680.81;5097773;28;19961;-65
2023/05/12 00:31:46;;;;;;;;;;;;;;;19.04;33.06;101684.38;5097579;28;19962;-65
2023/05/12 00:34:12;;;;;;;;;;;;;;;19.05;32.95;101690.63;5097070;28;19947;-65
2023/05/12 00:36:37;;;;;;;;;;;;;;;19.07;32.82;101686.63;5097042;28;20284;-66
2023/05/12 00:39:03;;;;;;;;;;;;;;;19.03;33.04;101688.13;5096673;28;19990;-66
2023/05/12 00:41:28;;;;;;;;;;;;;;;19.03;33.09;101690.84;5096353;28;19920;-66
2023/05/12 00:43:54;;;;;;;;;;;;;;;19.00;33.29;101685.88;5096568;28;20390;-65
2023/05/12 00:46:19;;;;;;;;;;;;;;;18.97;32.83;101694.47;5096501;28;19912;-66
2023/05/12 00:48:45;;;;;;;;;;;;;;;18.97;33.25;101699.09;5096561;28;19912;-66
2023/05/12 00:51:11;;;;;;;;;;;;;;;18.92;33.51;101695.09;5095463;28;20010;-66
2023/05/12 00:53:36;;;;;;;;;;;;;;;18.96;32.64;101698.22;5095312;28;19951;-66
2023/05/12 00:56:01;;;;;;;;;;;;;;;18.91;32.96;101703.53;5096789;28;19951;-66
2023/05/12 00:58:27;;;;;;;;;;;;;;;18.89;32.96;101706.47;5096287;28;19919;-66
2023/05/12 01:00:52;;;;;;;;;;;;;;;18.92;33.36;101702.44;5096263;28;20327;-66
2023/05/12 01:03:17;;;;;;;;;;;;;;;18.91;33.05;101708.97;5096338;28;19974;-66
2023/05/12 01:05:52;;;;;;;;;;;;;;;18.91;32.96;101714.41;5096264;28;19927;-66
2023/05/12 01:08:18;;;;;;;;;;;;;;;18.92;33.33;101716.88;5095756;28;20334;-67
2023/05/12 01:10:44;;;;;;;;;;;;;;;18.91;33.25;101723.41;5095741;28;19934;-67
2023/05/12 01:13:09;;;;;;;;;;;;;;;18.87;33.01;101722.19;5095656;28;20409;-66
2023/05/12 01:15:35;;;;;;;;;;;;;;;18.83;33.30;101725.53;5095452;28;19943;-66
2023/05/12 01:18:01;;;;;;;;;;;;;;;18.81;33.13;101722.19;5094296;28;19938;-66
2023/05/12 01:20:27;;;;;;;;;;;;;;;18.79;33.60;101727.00;5096117;28;19916;-65
2023/05/12 01:22:53;;;;;;;;;;;;;;;18.77;33.72;101722.59;5095744;28;20375;-66
2023/05/12 01:25:21;;;;;;;;;;;;;;;18.76;33.42;101731.00;5095908;28;20006;-65
2023/05/12 01:27:47;;;;;;;;;;;;;;;18.80;33.67;101736.84;5095115;28;19938;-65
2023/05/12 01:30:15;;;;;;;;;;;;;;;18.82;33.21;101735.59;5094454;28;19912;-66
2023/05/12 01:32:41;;;;;;;;;;;;;;;18.80;33.42;101732.22;5092736;28;20513;-66
2023/05/12 01:35:06;;;;;;;;;;;;;;;18.84;33.24;101735.38;5095278;28;19955;-66
2023/05/12 01:37:31;;;;;;;;;;;;;;;18.80;33.25;101740.41;5095014;28;19912;-65
2023/05/12 01:39:57;;;;;;;;;;;;;;;18.77;32.79;101738.09;5095395;28;19912;-65
2023/05/12 01:42:22;;;;;;;;;;;;;;;18.73;33.34;101736.88;5095153;28;19916;-66
2023/05/12 01:44:47;;;;;;;;;;;;;;;18.73;33.32;101742.31;5094970;28;20002;-66
2023/05/12 01:47:14;;;;;;;;;;;;;;;18.71;33.73;101741.69;5094941;28;19931;-66
2023/05/12 01:49:39;;;;;;;;;;;;;;;18.68;33.77;101750.28;5095015;28;19919;-66
2023/05/12 01:52:05;;;;;;;;;;;;;;;18.66;33.76;101750.50;5094424;28;20308;-66
2023/05/12 01:54:30;;;;;;;;;;;;;;;18.66;33.60;101744.22;5094949;28;19916;-66
2023/05/12 01:56:55;;;;;;;;;;;;;;;18.67;33.28;101751.34;5094306;28;20294;-66
2023/05/12 01:59:21;;;;;;;;;;;;;;;18.66;33.64;101746.94;5094815;28;20339;-66
2023/05/12 02:01:46;;;;;;;;;;;;;;;18.64;33.71;101741.72;5095040;28;20256;-66
2023/05/12 02:04:11;;;;;;;;;;;;;;;18.63;33.01;101742.78;5095373;28;19995;-66
2023/05/12 02:06:36;;;;;;;;;;;;;;;18.61;33.13;101744.03;5095131;28;19919;-66
2023/05/12 02:09:02;;;;;;;;;;;;;;;18.61;33.07;101738.59;5094601;28;19934;-66
2023/05/12 02:11:27;;;;;;;;;;;;;;;18.59;33.62;101746.97;5093375;28;19912;-66
2023/05/12 02:13:52;;;;;;;;;;;;;;;18.58;33.72;101737.97;5094199;28;19927;-66
2023/05/12 02:16:17;;;;;;;;;;;;;;;18.55;33.62;101735.69;5094571;28;19919;-65
2023/05/12 02:18:43;;;;;;;;;;;;;;;18.54;33.85;101739.44;5093070;28;20049;-66
2023/05/12 02:21:08;;;;;;;;;;;;;;;18.51;34.02;101741.75;5094503;28;19923;-66
2023/05/12 02:23:33;;;;;;;;;;;;;;;18.50;33.75;101743.66;5094073;28;19912;-65
2023/05/12 02:25:59;;;;;;;;;;;;;;;18.47;33.61;101744.09;5094665;28;20330;-65
2023/05/12 02:28:24;;;;;;;;;;;;;;;18.42;33.99;101745.78;5094453;28;20256;-66
2023/05/12 02:30:51;;;;;;;;;;;;;;;18.44;33.48;101744.50;5093278;28;19919;-65
2023/05/12 02:33:17;;;;;;;;;;;;;;;18.43;34.01;101736.56;5092551;28;19916;-66
2023/05/12 02:35:43;;;;;;;;;;;;;;;18.42;33.90;101745.78;5093245;28;19912;-66
2023/05/12 02:38:08;;;;;;;;;;;;;;;18.40;33.49;101742.44;5093868;28;19912;-65
2023/05/12 02:40:34;;;;;;;;;;;;;;;18.36;33.69;101739.31;5093962;28;19923;-66
2023/05/12 02:43:01;;;;;;;;;;;;;;;18.34;33.62;101741.41;5092289;28;19927;-66
2023/05/12 02:45:27;;;;;;;;;;;;;;;18.34;33.88;101742.25;5092302;28;19916;-66
2023/05/12 02:47:52;;;;;;;;;;;;;;;18.35;33.78;101745.81;5093840;28;20257;-66
2023/05/12 02:50:17;;;;;;;;;;;;;;;18.35;33.83;101743.91;5093583;28;19912;-66
2023/05/12 02:52:43;;;;;;;;;;;;;;;18.40;33.91;101747.88;5093501;28;19912;-66
2023/05/12 02:55:08;;;;;;;;;;;;;;;18.39;33.76;101752.50;5094330;28;20033;-66
2023/05/12 02:57:33;;;;;;;;;;;;;;;18.35;34.18;101760.25;5093687;28;19943;-66
2023/05/12 02:59:59;;;;;;;;;;;;;;;18.35;33.76;101757.53;5091256;28;19916;-66
2023/05/12 03:02:24;;;;;;;;;;;;;;;18.34;33.84;101761.28;5092569;28;19916;-65
2023/05/12 03:04:49;;;;;;;;;;;;;;;18.36;33.95;101759.19;5094499;28;20016;-65
2023/05/12 03:07:17;;;;;;;;;;;;;;;18.39;33.40;101757.94;5093341;28;19912;-65
2023/05/12 03:09:42;;;;;;;;;;;;;;;18.40;33.62;101754.16;5094104;28;19962;-65
2023/05/12 03:12:07;;;;;;;;;;;;;;;18.40;33.96;101756.03;5093981;28;19916;-66
2023/05/12 03:14:33;;;;;;;;;;;;;;;18.42;33.63;101752.03;5093683;28;20341;-65
2023/05/12 03:16:58;;;;;;;;;;;;;;;18.45;34.15;101756.25;5093991;28;20265;-65
2023/05/12 03:19:23;;;;;;;;;;;;;;;18.50;33.84;101757.25;5093739;28;20003;-65
2023/05/12 03:21:48;;;;;;;;;;;;;;;18.49;33.73;101757.47;5093046;28;20299;-65
2023/05/12 03:24:14;;;;;;;;;;;;;;;18.46;34.46;101758.75;5093349;28;19916;-66
2023/05/12 03:26:39;;;;;;;;;;;;;;;18.44;33.97;101760.00;5092542;28;19947;-65
2023/05/12 03:29:05;;;;;;;;;;;;;;;18.41;34.02;101768.59;5093720;28;20136;-66
2023/05/12 03:31:30;;;;;;;;;;;;;;;18.37;34.06;101763.56;5092924;28;20010;-66
2023/05/12 03:33:55;;;;;;;;;;;;;;;18.34;34.20;101765.88;5093058;28;19920;-65
2023/05/12 03:36:21;;;;;;;;;;;;;;;18.33;34.05;101762.34;5092888;28;19924;-65
2023/05/12 03:38:46;;;;;;;;;;;;;;;18.31;33.66;101769.03;5093032;28;19996;-65
2023/05/12 03:41:11;;;;;;;;;;;;;;;18.30;33.94;101765.47;5093186;28;19943;-65
2023/05/12 03:43:37;;;;;;;;;;;;;;;18.31;33.88;101766.31;5092916;28;19912;-65
2023/05/12 03:46:02;;;;;;;;;;;;;;;18.28;34.17;101773.00;5093373;28;20004;-66
2023/05/12 03:48:27;;;;;;;;;;;;;;;18.26;34.23;101777.00;5093081;28;20000;-65
2023/05/12 03:50:53;;;;;;;;;;;;;;;18.25;34.11;101772.59;5092547;28;20095;-65
2023/05/12 03:53:18;;;;;;;;;;;;;;;18.24;33.78;101771.78;5094288;28;19918;-65
2023/05/12 03:55:43;;;;;;;;;;;;;;;18.26;34.04;101763.41;5097368;28;19919;-65
2023/05/12 03:58:08;;;;;;;;;;;;;;;18.27;33.78;101778.66;5097105;28;19916;-65
2023/05/12 04:00:34;;;;;;;;;;;;;;;18.27;34.14;101779.50;5097196;28;19916;-65
2023/05/12 04:02:59;;;;;;;;;;;;;;;18.30;33.77;101773.63;5096973;28;20425;-66
2023/05/12 04:05:25;;;;;;;;;;;;;;;18.34;33.76;101769.44;5096844;28;19919;-65
2023/05/12 04:07:50;;;;;;;;;;;;;;;18.27;34.33;101770.50;5096781;28;20015;-65
2023/05/12 04:10:16;;;;;;;;;;;;;;;18.36;33.80;101769.22;5095899;28;19974;-65
2023/05/12 04:12:41;;;;;;;;;;;;;;;18.44;33.60;101771.69;5096417;28;20288;-66
2023/05/12 04:15:07;;;;;;;;;;;;;;;18.37;33.81;101774.47;5095002;28;19959;-65
2023/05/12 04:17:32;;;;;;;;;;;;;;;18.38;34.09;101773.41;5096515;28;19928;-65
2023/05/12 04:19:57;;;;;;;;;;;;;;;18.37;33.68;101771.75;5096320;28;20288;-65
2023/05/12 04:22:23;;;;;;;;;;;;;;;18.37;33.82;101777.19;5097043;28;19931;-65
2023/05/12 04:24:48;;;;;;;;;;;;;;;18.41;33.88;101779.47;5096935;28;19919;-65
2023/05/12 04:27:13;;;;;;;;;;;;;;;18.40;33.58;101773.19;5096911;28;19924;-66
2023/05/12 04:29:39;;;;;;;;;;;;;;;18.38;33.80;101781.56;5096986;28;20045;-66
2023/05/12 04:32:04;;;;;;;;;;;;;;;18.44;33.91;101784.47;5097039;28;19912;-65
2023/05/12 04:34:29;;;;;;;;;;;;;;;18.48;34.29;101785.72;5096763;28;19952;-66
2023/05/12 04:36:55;;;;;;;;;;;;;;;18.48;33.93;101785.72;5096629;28;20029;-66
2023/05/12 04:39:20;;;;;;;;;;;;;;;18.49;33.78;101785.50;5096548;28;20015;-65
2023/05/12 04:41:45;;;;;;;;;;;;;;;18.55;33.91;101791.97;5095778;28;19931;-65
2023/05/12 04:44:11;;;;;;;;;;;;;;;18.56;34.04;101788.22;5096495;28;19966;-65
2023/05/12 04:46:36;;;;;;;;;;;;;;;18.60;33.94;101792.16;5096224;28;19919;-65
2023/05/12 04:49:01;;;;;;;;;;;;;;;18.67;33.98;101789.44;5096075;28;19912;-65
2023/05/12 04:51:27;;;;;;;;;;;;;;;18.68;34.01;101794.66;5096001;28;19912;-66
2023/05/12 04:53:52;;;;;;;;;;;;;;;18.71;33.88;101794.22;5096653;28;19980;-65
2023/05/12 04:56:17;;;;;;;;;;;;;;;18.77;34.03;101800.69;5096797;28;19912;-65
2023/05/12 04:58:45;;;;;;;;;;;;;;;18.89;33.90;101798.19;5096177;28;19916;-65
2023/05/12 05:01:14;;;;;;;;;;;;;;;18.92;33.83;101795.00;5096485;28;19920;-66
2023/05/12 05:03:39;;;;;;;;;;;;;;;18.94;33.55;101798.34;5096390;28;19916;-66
2023/05/12 05:06:07;;;;;;;;;;;;;;;19.02;33.61;101800.84;5094499;28;19912;-66
2023/05/12 05:08:33;;;;;;;;;;;;;;;19.11;33.60;101801.41;5096208;28;19912;-66
2023/05/12 05:10:58;;;;;;;;;;;;;;;19.10;33.77;101803.28;5096116;28;19912;-66
2023/05/12 05:13:23;;;;;;;;;;;;;;;19.15;33.33;101803.47;5095113;28;19920;-66
2023/05/12 05:15:50;;;;;;;;;;;;;;;19.16;33.48;101809.75;5095388;28;19954;-66
2023/05/12 05:18:15;;;;;;;;;;;;;;;19.22;33.53;101803.44;5095663;28;20404;-65
2023/05/12 05:20:41;;;;;;;;;;;;;;;19.26;33.58;101806.56;5095643;28;20011;-66
2023/05/12 05:23:06;;;;;;;;;;;;;;;19.29;33.47;101800.69;5095242;28;19920;-66
2023/05/12 05:25:31;;;;;;;;;;;;;;;19.43;33.12;101802.28;5095062;28;19919;-66
2023/05/12 05:27:57;;;;;;;;;;;;;;;19.40;33.43;101807.31;5095236;28;19912;-66
2023/05/12 05:30:22;;;;;;;;;;;;;;;19.50;32.97;101808.50;5095144;28;19957;-66
2023/05/12 05:32:47;;;;;;;;;;;;;;;19.50;32.99;101807.66;5096088;28;20331;-65
2023/05/12 05:35:13;;;;;;;;;;;;;;;19.46;33.36;101809.97;5095314;28;19912;-66
2023/05/12 05:37:38;;;;;;;;;;;;;;;19.47;33.08;101816.28;5095782;28;19962;-66
2023/05/12 05:40:04;;;;;;;;;;;;;;;19.48;33.08;101818.81;5096012;28;20396;-65
2023/05/12 05:42:29;;;;;;;;;;;;;;;19.53;33.03;101823.56;5094775;28;19920;-65
2023/05/12 05:44:55;;;;;;;;;;;;;;;19.57;33.06;101829.41;5093383;28;19919;-65
2023/05/12 05:47:20;;;;;;;;;;;;;;;19.61;32.72;101834.19;5094693;28;19919;-66
2023/05/12 05:49:45;;;;;;;;;;;;;;;19.66;33.07;101839.00;5094903;28;19920;-66
2023/05/12 05:52:11;;;;;;;;;;;;;;;19.67;33.36;101840.69;5094444;28;20292;-66
2023/05/12 05:54:36;;;;;;;;;;;;;;;19.74;33.11;101838.75;5095206;28;19916;-65
2023/05/12 05:57:01;;;;;;;;;;;;;;;19.82;32.70;101838.50;5095018;28;19995;-66
2023/05/12 05:59:27;;;;;;;;;;;;;;;19.86;32.75;101844.34;5094511;28;19920;-66
2023/05/12 06:01:52;;;;;;;;;;;;;;;19.83;32.62;101840.16;5095269;28;20292;-66
2023/05/12 06:04:18;;;;;;;;;;;;;;;19.86;32.78;101844.34;5095250;28;19916;-65
2023/05/12 06:06:43;;;;;;;;;;;;;;;19.89;32.69;101838.44;5094810;28;19916;-66
2023/05/12 06:09:11;;;;;;;;;;;;;;;19.99;32.66;101832.50;5095855;28;19912;-66
2023/05/12 06:11:36;;;;;;;;;;;;;;;20.09;32.48;101841.00;5096673;28;19927;-66
2023/05/12 06:14:01;;;;;;;;;;;;;;;20.17;32.44;101834.41;5094195;28;19920;-66
2023/05/12 06:16:27;;;;;;;;;;;;;;;20.25;32.46;101834.16;5095918;28;19912;-67
2023/05/12 06:18:53;;;;;;;;;;;;;;;20.32;32.29;101824.00;5095866;28;19950;-67
2023/05/12 06:21:18;;;;;;;;;;;;;;;20.38;32.32;101825.81;5095004;28;19963;-66
2023/05/12 06:23:43;;;;;;;;;;;;;;;20.40;32.36;101828.34;5092909;28;19912;-65
2023/05/12 06:26:09;;;;;;;;;;;;;;;20.43;32.51;101830.59;5094310;28;20376;-66
2023/05/12 06:28:34;;;;;;;;;;;;;;;20.43;32.25;101822.41;5094496;28;19912;-65
2023/05/12 06:30:59;;;;;;;;;;;;;;;20.48;32.33;101826.13;5092681;28;19955;-65
2023/05/12 06:33:25;;;;;;;;;;;;;;;20.52;32.13;101821.03;5094054;28;20380;-66
2023/05/12 06:35:50;;;;;;;;;;;;;;;20.57;32.14;101818.47;5094154;28;20268;-66
2023/05/12 06:38:17;;;;;;;;;;;;;;;20.61;32.05;101819.72;5093700;28;19912;-65
2023/05/12 06:40:43;;;;;;;;;;;;;;;20.86;31.61;101819.63;5094303;28;19916;-65
2023/05/12 06:43:08;;;;;;;;;;;;;;;20.93;31.71;101819.56;5094029;28;19912;-63
2023/05/12 06:45:35;;;;;;;;;;;;;;;20.85;31.95;101826.16;5095315;28;19947;-64
2023/05/12 06:48:02;;;;;;;;;;;;;;;20.91;31.95;101824.41;5096533;28;19912;-62
2023/05/12 06:50:27;;;;;;;;;;;;;;;20.93;31.76;101825.03;5095468;28;20262;-63
2023/05/12 06:52:52;;;;;;;;;;;;;;;21.00;31.76;101823.03;5094914;28;19912;-64
2023/05/12 06:55:19;;;;;;;;;;;;;;;21.00;31.67;101828.47;5095532;28;20257;-63
2023/05/12 06:57:44;;;;;;;;;;;;;;;21.02;32.03;101823.66;5096520;28;20361;-63
2023/05/12 07:00:09;;;;;;;;;;;;;;;20.99;32.14;101831.47;5096011;28;19991;-63
2023/05/12 07:02:35;;;;;;;;;;;;;;;20.91;32.52;101829.03;5096249;28;20019;-63
2023/05/12 07:05:00;;;;;;;;;;;;;;;20.91;32.31;101832.59;5096621;28;20288;-64
2023/05/12 07:07:26;;;;;;;;;;;;;;;21.01;32.02;101832.91;5096666;28;20335;-64
2023/05/12 07:09:51;;;;;;;;;;;;;;;21.05;32.34;101834.09;5097013;28;19919;-64
2023/05/12 07:12:16;;;;;;;;;;;;;;;21.18;31.77;101837.72;5096811;28;19948;-64
2023/05/12 07:14:42;;;;;;;;;;;;;;;21.28;31.77;101835.25;5096970;28;19935;-64
2023/05/12 07:17:07;;;;;;;;;;;;;;;21.29;32.09;101839.66;5096355;28;19912;-64
2023/05/12 07:19:34;;;;;;;;;;;;;;;21.25;31.66;101833.84;5096757;28;19937;-63
2023/05/12 07:21:59;;;;;;;;;;;;;;;21.21;32.23;101837.25;5096768;28;19923;-64
2023/05/12 07:24:24;;;;;;;;;;;;;;;21.41;31.92;101847.91;5096298;28;20368;-63
2023/05/12 07:26:50;;;;;;;;;;;;;;;21.51;31.68;101844.63;5096927;28;20342;-63
2023/05/12 07:29:16;;;;;;;;;;;;;;;21.60;31.50;101840.50;5095814;28;19927;-63
2023/05/12 07:31:41;;;;;;;;;;;;;;;21.66;31.57;101842.31;5097166;28;19916;-64
2023/05/12 07:34:07;;;;;;;;;;;;;;;21.65;31.90;101846.94;5097069;28;20002;-63
2023/05/12 07:36:32;;;;;;;;;;;;;;;21.88;31.22;101839.00;5096440;28;19912;-63
2023/05/12 07:38:57;;;;;;;;;;;;;;;21.94;31.36;101841.66;5096337;28;19912;-65
2023/05/12 07:41:23;;;;;;;;;;;;;;;21.93;31.60;101837.25;5096161;28;19923;-64
2023/05/12 07:43:48;;;;;;;;;;;;;;;21.94;31.41;101838.09;5096177;28;19951;-64
2023/05/12 07:46:13;;;;;;;;;;;;;;;21.96;31.68;101847.72;5096400;28;19912;-64
2023/05/12 07:48:39;;;;;;;;;;;;;;;22.02;31.81;101846.75;5095140;28;19966;-64
2023/05/12 07:51:07;;;;;;;;;;;;;;;22.00;32.45;101846.16;5095277;28;19977;-64
2023/05/12 07:53:32;;;;;;;;;;;;;;;22.12;31.59;101848.06;5095588;28;19922;-64
2023/05/12 07:55:58;;;;;;;;;;;;;;;22.07;31.57;101845.25;5095764;28;19994;-65
2023/05/12 07:58:25;;;;;;;;;;;;;;;22.13;31.37;101847.84;5096605;28;19940;-64
2023/05/12 08:00:53;;;;;;;;;;;;;;;22.22;31.71;101845.59;5094858;28;19927;-64
2023/05/12 08:03:18;;;;;;;;;;;;;;;22.17;31.86;101846.28;5096405;28;19972;-64
2023/05/12 08:05:43;;;;;;;;;;;;;;;22.20;31.84;101847.75;5095122;28;20357;-64
2023/05/12 08:08:15;;;;;;;;;;;;;;;22.30;31.55;101850.72;5096681;28;19996;-64
2023/05/12 08:10:41;;;;;;;;;;;;;;;22.41;31.27;101849.91;5095281;28;19946;-64
2023/05/12 08:13:06;;;;;;;;;;;;;;;22.46;30.90;101849.19;5095957;28;20268;-63
2023/05/12 08:15:31;;;;;;;;;;;;;;;22.50;30.96;101855.03;5096045;28;20003;-63
2023/05/12 08:17:57;;;;;;;;;;;;;;;22.52;31.18;101850.13;5095867;28;20326;-64
2023/05/12 08:20:22;;;;;;;;;;;;;;;22.54;31.16;101850.72;5095988;28;20418;-64
2023/05/12 08:22:49;;;;;;;;;;;;;;;22.55;31.05;101850.50;5097043;28;19919;-64
2023/05/12 08:25:15;;;;;;;;;;;;;;;22.60;30.95;101850.63;5096312;28;19912;-65
2023/05/12 08:27:42;;;;;;;;;;;;;;;22.62;30.86;101847.59;5094075;28;20131;-64
2023/05/12 08:30:08;;;;;;;;;;;;;;;22.65;30.56;101851.78;5094999;28;20279;-64
2023/05/12 08:32:33;;;;;;;;;;;;;;;22.71;30.60;101850.81;5096192;28;20375;-64
2023/05/12 08:34:59;;;;;;;;;;;;;;;22.78;30.62;101854.25;5094841;28;19912;-64
2023/05/12 08:37:25;;;;;;;;;;;;;;;22.89;30.10;101853.41;5094809;28;19919;-64
2023/05/12 08:39:50;;;;;;;;;;;;;;;22.89;30.13;101855.31;5097923;28;20348;-64
2023/05/12 08:42:37;;;;;;;;;;;;;;;22.96;30.18;101858.75;5098634;28;19955;-64
2023/05/12 08:45:03;;;;;;;;;;;;;;;22.99;30.16;101855.50;5098085;28;19995;-64
2023/05/12 08:47:30;;;;;;;;;;;;;;;23.06;30.15;101844.44;5097735;28;19943;-64
2023/05/12 08:50:00;;;;;;;;;;;;;;;23.10;30.08;101853.84;5099523;28;19934;-65
2023/05/12 08:52:29;;;;;;;;;;;;;;;23.11;30.48;101844.56;5097665;28;19919;-64
2023/05/12 08:54:55;;;;;;;;;;;;;;;23.20;30.02;101851.31;5098221;28;19919;-64
2023/05/12 08:57:21;;;;;;;;;;;;;;;23.18;30.37;101850.72;5097623;28;19912;-64
2023/05/12 08:59:46;;;;;;;;;;;;;;;23.32;30.12;101849.34;5098216;28;19923;-64
2023/05/12 09:02:13;;;;;;;;;;;;;;;23.44;30.13;101848.44;5098620;28;19955;-64
2023/05/12 09:04:38;;;;;;;;;;;;;;;23.48;29.54;101853.22;5099494;28;19934;-64
2023/05/12 09:07:05;;;;;;;;;;;;;;;23.59;29.47;101848.75;5098701;28;20364;-64
2023/05/12 09:09:33;;;;;;;;;;;;;;;23.59;29.50;101854.22;5099811;28;19981;-64
2023/05/12 09:12:00;;;;;;;;;;;;;;;23.47;29.28;101845.22;5098934;28;19912;-64
2023/05/12 09:14:26;;;;;;;;;;;;;;;23.53;28.97;101850.56;5097093;28;19985;-64
2023/05/12 09:16:57;;;;;;;;;;;;;;;23.63;29.05;101847.16;5098328;28;20000;-64
2023/05/12 09:19:23;;;;;;;;;;;;;;;23.72;28.66;101844.84;5097722;28;20367;-63
2023/05/12 09:21:48;;;;;;;;;;;;;;;23.77;29.02;101842.19;5098728;28;19916;-65
2023/05/12 09:24:13;;;;;;;;;;;;;;;23.93;28.23;101837.81;5099043;28;19934;-63
2023/05/12 09:26:46;;;;;;;;;;;;;;;24.04;28.49;101847.06;5099213;28;19911;-64
2023/05/12 09:29:11;;;;;;;;;;;;;;;24.25;28.20;101845.44;5098725;28;20368;-64
2023/05/12 09:31:36;;;;;;;;;;;;;;;24.40;28.11;101834.69;5098406;28;19981;-64
2023/05/12 09:34:06;;;;;;;;;;;;;;;24.57;27.97;101836.59;5099043;28;19931;-63
2023/05/12 09:36:33;;;;;;;;;;;;;;;24.78;27.89;101835.78;5098731;28;19985;-65
2023/05/12 09:38:59;;;;;;;;;;;;;;;25.01;27.27;101839.34;5099286;28;19958;-64
2023/05/12 09:41:24;;;;;;;;;;;;;;;25.19;26.65;101838.19;5098217;28;20399;-64
2023/05/12 09:43:51;;;;;;;;;;;;;;;25.37;26.61;101837.00;5097610;28;19916;-65
2023/05/12 09:46:17;;;;;;;;;;;;;;;25.49;26.31;101832.19;5098508;28;20002;-65
2023/05/12 09:48:44;;;;;;;;;;;;;;;25.69;26.38;101832.38;5096853;28;19973;-65
2023/05/12 09:51:10;;;;;;;;;;;;;;;25.85;26.17;101832.47;5096315;28;20310;-65
2023/05/12 09:53:41;;;;;;;;;;;;;;;25.89;25.95;101831.72;5096844;28;19987;-65
2023/05/12 09:56:06;;;;;;;;;;;;;;;26.11;25.73;101833.53;5097186;28;19920;-65
2023/05/12 09:58:32;;;;;;;;;;;;;;;26.27;25.94;101835.28;5098613;28;20003;-65
2023/05/12 10:00:58;;;;;;;;;;;;;;;26.43;25.57;101832.66;5097461;28;19965;-65
2023/05/12 10:03:25;;;;;;;;;;;;;;;26.75;25.70;101831.72;5098341;28;19918;-65
2023/05/12 10:05:56;;;;;;;;;;;;;;;26.80;25.55;101828.97;5097842;28;19970;-65
2023/05/12 10:08:28;;;;;;;;;;;;;;;27.03;24.94;101825.75;5097502;28;19945;-65
2023/05/12 10:10:55;;;;;;;;;;;;;;;27.19;25.11;101821.13;5097186;28;19912;-65
2023/05/12 10:13:21;;;;;;;;;;;;;;;27.51;25.19;101820.06;5097509;28;19962;-65
2023/05/12 10:15:47;;;;;;;;;;;;;;;27.65;24.62;101822.28;5097137;28;20416;-65
2023/05/12 10:18:14;;;;;;;;;;;;;;;27.86;24.21;101823.94;5097100;28;19985;-65
2023/05/12 10:20:40;;;;;;;;;;;;;;;28.09;24.63;101818.97;5097072;28;20249;-65
2023/05/12 10:23:06;;;;;;;;;;;;;;;28.22;23.65;101815.63;5097020;28;19918;-65
2023/05/12 10:25:32;;;;;;;;;;;;;;;28.42;24.19;101809.22;5097376;28;20002;-66
2023/05/12 10:27:59;;;;;;;;;;;;;;;28.81;24.21;101815.97;5097332;28;19912;-65
2023/05/12 10:30:25;;;;;;;;;;;;;;;29.04;22.81;101823.63;5096777;28;19912;-65
2023/05/12 10:32:51;;;;;;;;;;;;;;;29.44;22.73;101818.97;5096977;28;20006;-66
2023/05/12 10:35:17;;;;;;;;;;;;;;;29.76;22.80;101814.84;5097305;28;19916;-65
2023/05/12 10:37:43;;;;;;;;;;;;;;;30.30;22.42;101821.25;5095145;28;19912;-65
2023/05/12 10:40:10;;;;;;;;;;;;;;;30.73;21.63;101817.72;5096538;28;20026;-65
2023/05/12 10:42:40;;;;;;;;;;;;;;;31.05;21.31;101815.09;5096629;28;19923;-66
2023/05/12 10:45:18;;;;;;;;;;;;;;;31.28;21.32;101818.06;5096011;28;19912;-65
2023/05/12 10:47:46;;;;;;;;;;;;;;;31.62;20.83;101812.25;5096672;28;19912;-65
2023/05/12 10:50:15;;;;;;;;;;;;;;;31.67;20.44;101813.28;5096284;28;19916;-65
2023/05/12 10:52:51;;;;;;;;;;;;;;;31.69;20.26;101811.06;5094436;28;19917;-65
2023/05/12 10:55:17;;;;;;;;;;;;;;;31.72;20.90;101810.44;5095574;28;19981;-65
2023/05/12 10:57:47;;;;;;;;;;;;;;;31.89;20.22;101809.84;5097004;28;19979;-66
2023/05/12 11:00:13;;;;;;;;;;;;;;;32.01;20.72;101813.78;5096091;28;19979;-65
2023/05/12 11:02:47;;;;;;;;;;;;;;;32.09;19.86;101814.25;5095429;28;20082;-66
2023/05/12 11:05:12;;;;;;;;;;;;;;;32.24;20.01;101818.69;5096315;28;19912;-66
2023/05/12 11:07:38;;;;;;;;;;;;;;;32.11;19.85;101814.75;5096863;28;19916;-65
2023/05/12 11:10:03;;;;;;;;;;;;;;;32.12;20.44;101819.19;5096531;28;19912;-65
2023/05/12 11:12:34;;;;;;;;;;;;;;;32.11;19.76;101814.75;5095286;28;19920;-65
2023/05/12 11:15:00;;;;;;;;;;;;;;;32.12;20.82;101817.22;5095684;28;20207;-65
2023/05/12 11:17:25;;;;;;;;;;;;;;;32.19;20.12;101819.63;5094956;28;19965;-65
2023/05/12 11:19:51;;;;;;;;;;;;;;;32.21;19.93;101812.59;5096200;28;19923;-65
2023/05/12 11:22:20;;;;;;;;;;;;;;;32.26;19.93;101811.66;5095636;28;19924;-65
2023/05/12 11:24:46;;;;;;;;;;;;;;;32.16;20.01;101806.31;5096195;28;19935;-65
2023/05/12 11:27:12;;;;;;;;;;;;;;;32.18;20.15;101812.41;5095559;28;19927;-65
2023/05/12 11:29:40;;;;;;;;;;;;;;;32.26;19.90;101814.44;5096269;28;19919;-65
2023/05/12 11:32:07;;;;;;;;;;;;;;;32.34;19.92;101816.53;5096454;28;19916;-65
2023/05/12 11:34:32;;;;;;;;;;;;;;;32.43;19.28;101805.50;5094816;28;19912;-65
2023/05/12 11:36:57;;;;;;;;;;;;;;;32.51;19.57;101803.97;5095907;28;19912;-66
2023/05/12 11:39:24;;;;;;;;;;;;;;;32.49;19.27;101817.34;5094240;28;19912;-66
2023/05/12 11:41:50;;;;;;;;;;;;;;;32.72;19.80;101813.53;5095598;28;19920;-66
2023/05/12 11:44:18;;;;;;;;;;;;;;;32.93;19.11;101815.84;5095329;28;20003;-66
2023/05/12 11:47:02;;;;;;;;;;;;;;;33.16;19.18;101806.44;5094959;28;19912;-66
2023/05/12 11:49:28;;;;;;;;;;;;;;;33.47;19.50;101811.28;5094911;28;19912;-65
2023/05/12 11:52:01;;;;;;;;;;;;;;;33.60;19.30;101808.72;5093734;28;19912;-65
2023/05/12 11:54:29;;;;;;;;;;;;;;;33.88;18.08;101813.03;5095985;28;19920;-65
2023/05/12 11:56:55;;;;;;;;;;;;;;;34.17;18.29;101808.09;5095411;28;19920;-65
2023/05/12 11:59:24;;;;;;;;;;;;;;;34.20;18.83;101807.47;5095316;28;19934;-65
2023/05/12 12:01:50;;;;;;;;;;;;;;;34.20;18.05;101807.47;5094980;28;19927;-65
2023/05/12 12:04:15;;;;;;;;;;;;;;;34.12;18.45;101809.88;5095425;28;20119;-65
2023/05/12 12:06:43;;;;;;;;;;;;;;;34.29;18.62;101817.50;5093580;28;19920;-65
2023/05/12 12:09:09;;;;;;;;;;;;;;;34.28;17.34;101812.25;5093264;28;19991;-65
2023/05/12 12:11:34;;;;;;;;;;;;;;;34.31;17.03;101811.63;5092920;28;20277;-65
2023/05/12 12:14:00;;;;;;;;;;;;;;;34.52;17.93;101809.03;5092637;28;19924;-65
2023/05/12 12:16:26;;;;;;;;;;;;;;;34.74;17.72;101810.94;5098066;28;19919;-65
2023/05/12 12:18:52;;;;;;;;;;;;;;;34.81;17.81;101807.66;5098421;28;19919;-65
2023/05/12 12:21:18;;;;;;;;;;;;;;;34.83;17.44;101811.75;5099281;28;19916;-65
2023/05/12 12:23:43;;;;;;;;;;;;;;;35.12;17.66;101803.88;5099377;28;19919;-66
2023/05/12 12:26:09;;;;;;;;;;;;;;;35.22;16.78;101807.22;5098664;28;19951;-66
2023/05/12 12:28:34;;;;;;;;;;;;;;;35.45;17.41;101798.63;5098230;28;19912;-66